Aérodrome :
LOGIN :

S'inscrire | Disclaimer

   EN    FR    IT 

 










Légende :    VFR   VFR Marginal   IFR   IFR Intensif   IFR Très Intensif
Visi : 
Plafond : 
>= 8 km
>= 3000ft
5 à 8 km
1000 à 3000 ft
1500m à 5 km
500 à 1000 ft
800 à 1500m
200 à 500 ft
< 800m
< 200 ft
Symboles :   Orages  Brouillard  Fortes neiges  Fortes précipitations  Vent > 20 kt
SIGMETs :   Divers  Orages  Givrage  Turbulence  Onde Orograph.  Cendres Volcan.







- Altitude de l'aérodrome : 14 ft
- Code IATA : BRE


EDDW - Bremen Neuenland

DERNIER METAR :
  • 260520Z 05003KT CAVOK 19/17 Q1019 NOSIG

METARs EXPIRÉS :
  • 260450Z 04003KT CAVOK 19/17 Q1019 NOSIG
  • 260420Z 06003KT CAVOK 18/16 Q1019 NOSIG
  • 260350Z 04003KT CAVOK 19/17 Q1019 NOSIG
  • 260320Z 02003KT 360V060 CAVOK 20/17 Q1019
  • 260250Z VRB02KT CAVOK 20/17 Q1019

TAF TAF EDDW
Valide du 26 à 06h jusqu'au 27 à 06h UTC


260500Z 2606/2706 06003KT CAVOK
BECMG 2607/2610 12010KT
BECMG 2617/2620 10003KT
Pas de NOTAMs connus pour ce terrain.



MET'MAP, la Météo Aéronautique d'un coup d'oeil ! - Copyright ORBIFLY Décembre 2007 - Disclaimer

ORBIFLY MET'MAP TEAM :

Programmation & Développement : Alexandra Zaïnal
Conception & Développement : Baudouin d'Aumeries
Co-Programmation & Développement : Marc-Olivier Méhu
Soutien technique & logistique : Manuel Goepfert

Contact : metmap@orbifly.com




SOURCES & CREDITS :

   NOAA